Alba, Illinois
Current Conditions -  °F | °C
As of 12:01 PM on Monday 24 Nov 2014 (Local Time) from KMLI Reporting Station
Overcast Overcast  
Wind Chill: 14°   Ceiling: 1500
Heat Index: 29°   Visibility: 9mi
Dew Point: 23°   Wind: 26mph
Humidity: 78%   Direction: 280°W
Pressure: 29.48"   Gusts: 36mph
Location:  41.4097°N, 90.0293°W
Report Text: KMLI 241801Z 28023G31KT 9SM OVC015 M02/M05 A2948 RMK AO2 PK WND 27031/1757 T10171050
Loading
Personal Weather Stations






























Interactive Weather Map New forecast layout! Learn more

10-Day Weather Forecast

Advertisements
Track Severe Weather on mobile